createdAt,value
2019-01-24T00:00:30.124Z,76.93
2019-01-24T00:03:03.402Z,81.17
2019-01-24T00:05:35.264Z,82.43
2019-01-24T00:08:07.927Z,87.40
2019-01-24T00:10:40.683Z,85.27
2019-01-24T00:13:11.919Z,87.00
2019-01-24T00:15:43.438Z,85.20
2019-01-24T00:18:16.469Z,81.93
2019-01-24T00:20:49.606Z,76.93
2019-01-24T00:23:21.759Z,85.50
2019-01-24T00:25:52.995Z,95.83
2019-01-24T00:28:25.494Z,84.10
2019-01-24T00:30:56.918Z,93.00
2019-01-24T00:33:28.197Z,83.13
2019-01-24T00:35:59.797Z,76.37
2019-01-24T00:38:32.485Z,83.40
2019-01-24T00:41:03.794Z,93.23
2019-01-24T00:43:37.021Z,91.40
2019-01-24T00:46:08.303Z,88.77
2019-01-24T00:48:41.589Z,90.40
2019-01-24T00:51:12.843Z,86.27
2019-01-24T00:53:44.081Z,91.93
2019-01-24T00:56:15.521Z,86.07
2019-01-24T00:58:47.296Z,98.57
2019-01-24T01:01:18.826Z,101.73
2019-01-24T01:03:50.374Z,91.90
2019-01-24T01:06:21.802Z,83.97
2019-01-24T01:08:53.270Z,84.47
2019-01-24T01:11:24.678Z,88.57
2019-01-24T01:13:55.968Z,95.30
2019-01-24T01:16:27.406Z,89.13
2019-01-24T01:19:07.656Z,89.57
2019-01-24T01:21:39.927Z,89.00
2019-01-24T01:24:11.328Z,83.00
2019-01-24T01:26:42.896Z,85.07
2019-01-24T01:29:14.258Z,81.30
2019-01-24T01:31:45.851Z,86.50
2019-01-24T01:34:17.209Z,80.27
2019-01-24T01:36:48.812Z,87.13
2019-01-24T01:39:21.929Z,79.43
2019-01-24T01:41:55.324Z,79.27
2019-01-24T01:44:26.686Z,92.03
2019-01-24T01:46:58.346Z,83.07
2019-01-24T01:49:29.854Z,93.50
2019-01-24T01:52:01.150Z,72.03
2019-01-24T01:54:32.849Z,76.93
2019-01-24T01:57:04.368Z,87.00
2019-01-24T01:59:36.485Z,79.60
2019-01-24T02:02:09.480Z,83.93
2019-01-24T02:04:43.675Z,83.43
2019-01-24T02:07:14.965Z,84.10
2019-01-24T02:09:46.861Z,75.57
2019-01-24T02:12:18.375Z,79.07
2019-01-24T02:14:49.946Z,76.43
2019-01-24T02:17:21.344Z,82.60
2019-01-24T02:19:54.204Z,78.27
2019-01-24T02:22:25.979Z,79.97
2019-01-24T02:24:57.336Z,73.17
2019-01-24T02:27:31.909Z,81.90
2019-01-24T02:30:03.427Z,74.73
2019-01-24T02:32:35.212Z,78.97
2019-01-24T02:35:06.818Z,78.87
2019-01-24T02:37:40.486Z,67.33
2019-01-24T02:40:20.412Z,73.60
2019-01-24T02:42:51.307Z,76.50
2019-01-24T02:45:22.036Z,73.73
2019-01-24T02:47:53.038Z,83.40
2019-01-24T02:50:24.546Z,72.83
2019-01-24T02:52:55.270Z,69.33
2019-01-24T02:55:26.288Z,75.27
2019-01-24T02:57:59.925Z,70.67
2019-01-24T03:00:31.706Z,75.63
2019-01-24T03:03:03.780Z,76.57
2019-01-24T03:05:35.330Z,75.97
2019-01-24T03:08:08.787Z,78.60
2019-01-24T03:10:43.897Z,89.00
2019-01-24T03:13:15.773Z,87.00
2019-01-24T03:15:47.006Z,83.13
2019-01-24T03:18:18.373Z,93.50
2019-01-24T03:20:49.788Z,89.33
2019-01-24T03:23:21.879Z,87.43
2019-01-24T03:25:55.163Z,88.77
2019-01-24T03:28:26.419Z,81.37
2019-01-24T03:30:59.067Z,92.03
2019-01-24T03:33:55.838Z,90.70
2019-01-24T03:36:28.558Z,90.93
2019-01-24T03:39:08.750Z,94.83
2019-01-24T03:41:41.737Z,87.70
2019-01-24T03:44:13.238Z,86.77
2019-01-24T03:46:44.555Z,90.60
2019-01-24T03:49:16.882Z,102.30
2019-01-24T03:51:48.155Z,93.10
2019-01-24T03:54:20.700Z,92.77
2019-01-24T03:56:53.696Z,88.80
2019-01-24T03:59:25.205Z,99.07
2019-01-24T04:01:56.498Z,82.70
2019-01-24T04:04:35.961Z,89.87
2019-01-24T04:07:07.733Z,84.53
2019-01-24T04:09:39.533Z,84.30
2019-01-24T04:12:11.354Z,84.67
2019-01-24T04:14:42.854Z,84.20
2019-01-24T04:17:13.911Z,88.87
2019-01-24T04:19:45.018Z,87.13
2019-01-24T04:22:16.614Z,91.37
2019-01-24T04:24:52.617Z,83.40
2019-01-24T04:27:23.225Z,76.60
2019-01-24T04:29:54.489Z,94.63
2019-01-24T04:32:28.598Z,90.53
2019-01-24T04:35:01.148Z,84.20
2019-01-24T04:37:33.964Z,91.63
2019-01-24T04:40:05.724Z,90.90
2019-01-24T04:42:38.885Z,89.83
2019-01-24T04:45:12.357Z,73.70
2019-01-24T04:47:44.181Z,87.00
2019-01-24T04:50:15.827Z,80.20
2019-01-24T04:52:46.456Z,88.80
2019-01-24T04:55:17.817Z,81.77
2019-01-24T04:57:48.429Z,86.47
2019-01-24T05:00:22.990Z,86.93
2019-01-24T05:02:54.540Z,79.07
2019-01-24T05:05:28.304Z,82.87
2019-01-24T05:08:01.013Z,74.63
2019-01-24T05:10:32.313Z,85.90
2019-01-24T05:13:03.835Z,74.33
2019-01-24T05:15:36.818Z,74.07
2019-01-24T05:18:08.123Z,81.47
2019-01-24T05:20:40.616Z,76.87
2019-01-24T05:23:12.943Z,72.97
2019-01-24T05:25:45.337Z,77.77
2019-01-24T05:28:18.152Z,72.80
2019-01-24T05:30:51.126Z,83.30
2019-01-24T05:33:22.709Z,74.60
2019-01-24T05:35:56.200Z,76.67
2019-01-24T05:38:28.023Z,78.10
2019-01-24T05:40:59.502Z,72.63
2019-01-24T05:43:33.010Z,72.63
2019-01-24T05:46:09.800Z,76.90
2019-01-24T05:48:43.300Z,77.57
2019-01-24T05:51:14.759Z,71.83
2019-01-24T05:53:46.378Z,77.67
2019-01-24T05:56:17.902Z,76.53
2019-01-24T05:58:49.367Z,77.63
2019-01-24T06:01:22.774Z,71.33
2019-01-24T06:03:54.921Z,77.47
2019-01-24T06:06:27.846Z,76.10
2019-01-24T06:08:59.378Z,69.33
2019-01-24T06:11:30.901Z,73.77
2019-01-24T06:14:02.182Z,70.53
2019-01-24T06:16:33.548Z,67.37
2019-01-24T06:19:04.992Z,74.03
2019-01-24T06:21:36.519Z,76.23
2019-01-24T06:24:07.962Z,74.43
2019-01-24T06:26:39.360Z,73.03
2019-01-24T06:29:11.123Z,70.57
2019-01-24T06:31:42.668Z,63.67
2019-01-24T06:34:14.332Z,72.07
2019-01-24T06:36:47.549Z,70.63
2019-01-24T06:39:22.669Z,77.97
2019-01-24T06:41:54.958Z,78.17
2019-01-24T06:44:26.162Z,84.83
2019-01-24T06:46:59.459Z,86.47
2019-01-24T06:49:30.747Z,99.50
2019-01-24T06:52:02.245Z,101.00
2019-01-24T06:54:33.640Z,107.00
2019-01-24T06:57:06.317Z,87.20
2019-01-24T06:59:38.820Z,96.87
2019-01-24T07:02:10.550Z,77.37
2019-01-24T07:04:41.933Z,85.50
2019-01-24T07:07:14.755Z,83.77
2019-01-24T07:09:46.111Z,81.47
2019-01-24T07:12:18.602Z,73.00
2019-01-24T07:14:50.697Z,68.20
2019-01-24T07:17:23.569Z,75.17
2019-01-24T07:20:02.296Z,63.70
2019-01-24T07:22:34.902Z,73.67
2019-01-24T07:25:08.225Z,67.80
2019-01-24T07:27:39.576Z,68.57
2019-01-24T07:30:14.543Z,68.43
2019-01-24T07:32:46.185Z,68.67
2019-01-24T07:35:19.108Z,62.73
2019-01-24T07:37:52.292Z,66.53
2019-01-24T07:40:23.569Z,68.83
2019-01-24T07:42:56.124Z,64.93
2019-01-24T07:45:33.309Z,58.93
2019-01-24T07:48:04.970Z,66.03
2019-01-24T07:50:36.449Z,63.17
2019-01-24T07:53:08.049Z,67.07
2019-01-24T07:55:39.743Z,63.10
2019-01-24T07:58:11.185Z,61.73
2019-01-24T08:00:45.346Z,63.83
2019-01-24T08:03:18.793Z,57.70
2019-01-24T08:05:50.515Z,64.53
2019-01-24T08:08:23.776Z,59.93
2019-01-24T08:10:55.791Z,64.20
2019-01-24T08:13:27.456Z,60.00
2019-01-24T08:15:58.756Z,63.17
2019-01-24T08:18:30.102Z,58.70
2019-01-24T08:21:03.717Z,70.33
2019-01-24T08:23:37.404Z,66.30
2019-01-24T08:26:08.973Z,63.27
2019-01-24T08:28:42.285Z,60.23
2019-01-24T08:31:13.643Z,62.03
2019-01-24T08:33:44.977Z,57.30
2019-01-24T08:36:17.518Z,58.30
2019-01-24T08:38:51.636Z,58.63
2019-01-24T08:41:24.998Z,61.50
2019-01-24T08:43:56.400Z,59.70
2019-01-24T08:46:28.874Z,56.33
2019-01-24T08:49:00.531Z,62.70
2019-01-24T08:51:31.758Z,66.87
2019-01-24T08:54:03.210Z,62.87
2019-01-24T08:56:34.680Z,60.43
2019-01-24T08:59:07.318Z,58.80
2019-01-24T09:01:39.056Z,54.73
2019-01-24T09:04:11.120Z,70.93
2019-01-24T09:06:43.618Z,69.37
2019-01-24T09:09:15.205Z,66.73
2019-01-24T09:11:46.588Z,68.87
2019-01-24T09:14:19.730Z,66.10
2019-01-24T09:16:51.101Z,65.67
2019-01-24T09:19:23.297Z,75.00
2019-01-24T09:21:55.823Z,59.97
2019-01-24T09:24:30.634Z,63.87
2019-01-24T09:27:02.594Z,63.37
2019-01-24T09:29:33.833Z,55.67
2019-01-24T09:32:05.164Z,61.57
2019-01-24T09:34:37.458Z,69.87
2019-01-24T09:37:08.849Z,81.33
2019-01-24T09:39:40.752Z,84.10
2019-01-24T09:42:12.251Z,80.93
2019-01-24T09:44:43.697Z,105.70
2019-01-24T09:47:15.978Z,91.90
2019-01-24T09:49:47.304Z,88.20
2019-01-24T09:52:22.865Z,88.57
2019-01-24T09:54:54.407Z,79.67
2019-01-24T09:57:35.494Z,73.47
2019-01-24T10:00:10.699Z,71.70
2019-01-24T10:02:43.361Z,84.00
2019-01-24T10:05:14.970Z,85.20
2019-01-24T10:07:46.470Z,67.80
2019-01-24T10:10:20.311Z,73.83
2019-01-24T10:12:52.011Z,69.70
2019-01-24T10:15:23.878Z,79.73
2019-01-24T10:17:55.265Z,66.07
2019-01-24T10:20:28.714Z,89.13
2019-01-24T10:23:00.212Z,84.00
2019-01-24T10:25:34.625Z,82.10
2019-01-24T10:28:06.340Z,100.10
2019-01-24T10:30:42.584Z,96.37
2019-01-24T10:33:11.233Z,79.23
2019-01-24T10:35:43.663Z,89.90
2019-01-24T10:38:16.488Z,82.57
2019-01-24T10:40:52.244Z,73.37
2019-01-24T10:43:23.442Z,82.80
2019-01-24T10:45:54.929Z,83.63
2019-01-24T10:48:28.176Z,91.53
2019-01-24T10:50:59.526Z,83.03
2019-01-24T10:53:31.635Z,68.37
2019-01-24T10:56:03.232Z,74.33
2019-01-24T10:58:37.262Z,76.77
2019-01-24T11:01:08.482Z,101.80
2019-01-24T11:03:39.895Z,119.17
2019-01-24T11:06:12.241Z,117.00
2019-01-24T11:08:50.409Z,117.77
2019-01-24T11:11:23.288Z,104.17
2019-01-24T11:13:54.661Z,95.67
2019-01-24T11:16:27.414Z,78.63
2019-01-24T11:18:59.769Z,73.63
2019-01-24T11:21:34.303Z,65.10
2019-01-24T11:24:07.110Z,81.70
2019-01-24T11:26:39.621Z,79.23
2019-01-24T11:29:11.190Z,68.50
2019-01-24T11:31:43.610Z,59.37
2019-01-24T11:34:17.922Z,61.00
2019-01-24T11:36:56.871Z,59.27
2019-01-24T11:39:27.346Z,64.27
2019-01-24T11:42:06.515Z,60.83
2019-01-24T11:44:42.156Z,68.93
2019-01-24T11:47:13.476Z,55.37
2019-01-24T11:49:46.436Z,62.17
2019-01-24T11:52:21.571Z,55.40
2019-01-24T11:54:53.010Z,52.93
2019-01-24T11:57:25.413Z,51.37
2019-01-24T11:59:56.717Z,50.10
2019-01-24T12:02:28.109Z,55.77
2019-01-24T12:05:14.365Z,44.57
2019-01-24T12:07:46.048Z,48.93
2019-01-24T12:10:19.172Z,45.50
2019-01-24T12:12:51.444Z,48.57
2019-01-24T12:15:23.243Z,51.93
2019-01-24T12:18:00.011Z,46.00
2019-01-24T12:20:32.789Z,50.33
2019-01-24T12:23:09.595Z,52.07
2019-01-24T12:25:42.405Z,47.17
2019-01-24T12:28:15.340Z,61.30
2019-01-24T12:30:46.613Z,53.70
2019-01-24T12:33:17.930Z,60.97
2019-01-24T12:35:49.532Z,61.80
2019-01-24T12:38:21.393Z,60.77
2019-01-24T12:40:52.704Z,50.97
2019-01-24T12:43:24.132Z,50.67
2019-01-24T12:45:55.438Z,54.73
2019-01-24T12:48:26.779Z,44.43
2019-01-24T12:50:59.849Z,46.03
2019-01-24T12:53:31.411Z,42.07
2019-01-24T12:56:08.658Z,46.57
2019-01-24T12:58:40.154Z,42.77
2019-01-24T13:01:11.449Z,45.77
2019-01-24T13:03:44.057Z,44.17
2019-01-24T13:06:15.835Z,47.17
2019-01-24T13:08:50.289Z,50.80
2019-01-24T13:11:21.721Z,50.97
2019-01-24T13:13:56.409Z,48.17
2019-01-24T13:16:30.577Z,57.70
2019-01-24T13:19:01.895Z,48.53
2019-01-24T13:21:33.827Z,58.10
2019-01-24T13:24:05.750Z,47.70
2019-01-24T13:26:37.173Z,55.00
2019-01-24T13:29:15.888Z,54.17
2019-01-24T13:31:47.159Z,54.30
2019-01-24T13:34:18.740Z,49.23
2019-01-24T13:36:51.356Z,52.57
2019-01-24T13:39:24.921Z,46.23
2019-01-24T13:41:57.154Z,50.27
2019-01-24T13:44:29.579Z,50.07
2019-01-24T13:47:00.985Z,48.17
2019-01-24T13:49:32.813Z,49.97
2019-01-24T13:52:05.541Z,40.10
2019-01-24T13:54:36.961Z,43.90
2019-01-24T13:57:08.342Z,50.27
2019-01-24T13:59:41.638Z,41.10
2019-01-24T14:02:13.085Z,40.83
2019-01-24T14:04:47.539Z,47.00
2019-01-24T14:07:19.339Z,36.97
2019-01-24T14:09:54.043Z,44.83
2019-01-24T14:12:27.028Z,48.20
2019-01-24T14:15:01.401Z,44.03
2019-01-24T14:17:33.184Z,43.23
2019-01-24T14:20:06.547Z,39.30
2019-01-24T14:22:37.936Z,38.50
2019-01-24T14:25:11.890Z,41.00
2019-01-24T14:27:43.706Z,42.77
2019-01-24T14:30:20.493Z,42.70
2019-01-24T14:32:54.066Z,47.07
2019-01-24T14:35:25.732Z,48.00
2019-01-24T14:37:59.394Z,53.90
2019-01-24T14:40:31.119Z,65.20
2019-01-24T14:43:02.389Z,49.50
2019-01-24T14:45:34.465Z,49.13
2019-01-24T14:48:08.076Z,46.67
2019-01-24T14:50:41.057Z,43.77
2019-01-24T14:53:12.478Z,44.33
2019-01-24T14:55:43.929Z,42.30
2019-01-24T14:58:15.197Z,43.70
2019-01-24T15:01:02.682Z,62.13
2019-01-24T15:03:35.361Z,71.17
2019-01-24T15:06:06.854Z,75.40
2019-01-24T15:08:40.693Z,62.83
2019-01-24T15:11:12.082Z,71.30
2019-01-24T15:13:43.365Z,72.07
2019-01-24T15:16:15.183Z,57.87
2019-01-24T15:18:46.558Z,56.50
2019-01-24T15:21:25.480Z,70.07
2019-01-24T15:23:57.494Z,57.83
2019-01-24T15:26:28.783Z,56.63
2019-01-24T15:28:59.976Z,52.97
2019-01-24T15:31:31.665Z,45.13
2019-01-24T15:34:06.619Z,47.50
2019-01-24T15:36:37.942Z,54.77
2019-01-24T15:39:09.805Z,55.00
2019-01-24T15:41:41.344Z,52.70
2019-01-24T15:44:12.860Z,49.53
2019-01-24T15:46:46.006Z,45.63
2019-01-24T15:49:17.277Z,46.13
2019-01-24T15:51:48.617Z,44.80
2019-01-24T15:54:20.129Z,43.53
2019-01-24T15:56:51.642Z,48.67
2019-01-24T15:59:27.153Z,56.77
2019-01-24T16:01:58.697Z,70.83
2019-01-24T16:04:31.880Z,57.70
2019-01-24T16:07:03.146Z,62.27
2019-01-24T16:09:37.970Z,64.20
2019-01-24T16:12:09.564Z,64.73
2019-01-24T16:14:42.399Z,64.80
2019-01-24T16:17:13.942Z,74.23
2019-01-24T16:19:46.198Z,68.67
2019-01-24T16:22:17.609Z,59.27
2019-01-24T16:24:48.948Z,68.00
2019-01-24T16:27:20.446Z,63.70
2019-01-24T16:29:53.837Z,63.33
2019-01-24T16:32:25.066Z,65.23
2019-01-24T16:34:56.452Z,66.50
2019-01-24T16:37:29.042Z,70.40
2019-01-24T16:40:00.937Z,61.97
2019-01-24T16:42:32.846Z,64.13
2019-01-24T16:45:04.698Z,60.87
2019-01-24T16:47:37.634Z,68.13
2019-01-24T16:50:10.179Z,68.87
2019-01-24T16:52:43.924Z,75.37
2019-01-24T16:55:15.886Z,70.30
2019-01-24T16:57:47.687Z,69.93
2019-01-24T17:00:47.449Z,77.90
2019-01-24T17:03:18.754Z,75.07
2019-01-24T17:05:51.418Z,70.57
2019-01-24T17:08:23.455Z,74.03
2019-01-24T17:10:55.038Z,58.67
2019-01-24T17:13:30.596Z,72.23
2019-01-24T17:16:02.008Z,70.37
2019-01-24T17:18:34.658Z,69.40
2019-01-24T17:21:06.133Z,70.60
2019-01-24T17:23:37.897Z,69.70
2019-01-24T17:26:09.167Z,72.07
2019-01-24T17:28:41.513Z,69.13
2019-01-24T17:31:12.841Z,72.73
2019-01-24T17:33:44.333Z,66.40
2019-01-24T17:36:15.831Z,69.17
2019-01-24T17:38:48.227Z,79.73
2019-01-24T17:41:19.858Z,77.03
2019-01-24T17:43:51.429Z,82.37
2019-01-24T17:46:22.635Z,78.17
2019-01-24T17:48:56.003Z,80.83
2019-01-24T17:51:27.411Z,73.47
2019-01-24T17:53:58.817Z,82.03
2019-01-24T17:56:31.283Z,78.67
2019-01-24T17:59:02.808Z,77.87
2019-01-24T18:01:34.190Z,77.13
2019-01-24T18:04:05.771Z,73.73
2019-01-24T18:06:37.192Z,87.17
2019-01-24T18:09:09.396Z,89.43
2019-01-24T18:11:40.790Z,67.37
2019-01-24T18:14:13.802Z,75.53
2019-01-24T18:16:45.431Z,83.00
2019-01-24T18:19:16.755Z,74.23
2019-01-24T18:21:48.209Z,91.00
2019-01-24T18:24:19.573Z,78.23
2019-01-24T18:26:54.306Z,87.67
2019-01-24T18:29:26.081Z,79.33
2019-01-24T18:31:57.562Z,87.60
2019-01-24T18:34:29.152Z,77.13
2019-01-24T18:37:00.576Z,72.73
2019-01-24T18:39:33.025Z,72.00
2019-01-24T18:42:04.527Z,79.57
2019-01-24T18:44:37.235Z,74.73
2019-01-24T18:47:09.408Z,76.87
2019-01-24T18:49:40.787Z,68.37
2019-01-24T18:52:12.233Z,73.03
2019-01-24T18:54:43.653Z,73.10
2019-01-24T18:57:14.921Z,75.27
2019-01-24T18:59:48.609Z,69.00
2019-01-24T19:02:19.948Z,69.23
2019-01-24T19:04:51.370Z,67.90
2019-01-24T19:07:22.679Z,77.73
2019-01-24T19:09:55.610Z,89.93
2019-01-24T19:12:28.025Z,102.30
2019-01-24T19:15:00.191Z,106.17
2019-01-24T19:17:32.765Z,111.40
2019-01-24T19:20:04.779Z,113.67
2019-01-24T19:22:36.764Z,150.63
2019-01-24T19:25:09.076Z,149.93
2019-01-24T19:27:42.121Z,176.83
2019-01-24T19:30:23.298Z,161.17
2019-01-24T19:32:55.194Z,169.60
2019-01-24T19:35:31.916Z,183.50
2019-01-24T19:38:03.596Z,177.87
2019-01-24T19:40:36.058Z,173.73
2019-01-24T19:43:07.282Z,169.87
2019-01-24T19:45:39.001Z,188.57
2019-01-24T19:48:10.682Z,192.30
2019-01-24T19:50:42.014Z,194.37
2019-01-24T19:53:15.441Z,177.27
2019-01-24T19:55:46.787Z,181.17
2019-01-24T19:58:18.103Z,173.13
2019-01-24T20:00:49.612Z,172.77
2019-01-24T20:03:20.945Z,152.47
2019-01-24T20:05:52.444Z,161.07
2019-01-24T20:08:23.647Z,162.57
2019-01-24T20:10:55.045Z,183.10
2019-01-24T20:13:26.631Z,306.47
2019-01-24T20:15:57.925Z,361.73
2019-01-24T20:18:29.741Z,361.97
2019-01-24T20:21:01.082Z,359.83
2019-01-24T20:23:32.572Z,331.50
2019-01-24T20:26:05.341Z,315.50
2019-01-24T20:28:38.263Z,306.80
2019-01-24T20:31:09.658Z,277.87
2019-01-24T20:33:41.129Z,279.37
2019-01-24T20:36:12.769Z,258.13
2019-01-24T20:38:44.047Z,249.27
2019-01-24T20:41:15.478Z,234.37
2019-01-24T20:43:46.738Z,235.40
2019-01-24T20:46:18.154Z,221.83
2019-01-24T20:48:49.695Z,202.40
2019-01-24T20:51:21.095Z,184.33
2019-01-24T20:53:52.709Z,173.57
2019-01-24T20:56:24.724Z,183.17
2019-01-24T20:58:56.677Z,169.37
2019-01-24T21:01:31.769Z,163.57
2019-01-24T21:04:08.209Z,170.17
2019-01-24T21:06:39.641Z,160.00
2019-01-24T21:09:14.841Z,153.47
2019-01-24T21:11:45.276Z,123.17
2019-01-24T21:14:16.525Z,142.40
2019-01-24T21:16:48.262Z,138.33
2019-01-24T21:19:22.166Z,135.17
2019-01-24T21:21:53.497Z,125.40
2019-01-24T21:24:25.068Z,112.03
2019-01-24T21:26:56.458Z,104.40
2019-01-24T21:29:30.126Z,110.10
2019-01-24T21:32:01.549Z,104.30
2019-01-24T21:34:33.415Z,98.20
2019-01-24T21:37:06.341Z,97.67
2019-01-24T21:39:37.900Z,103.47
2019-01-24T21:42:09.366Z,93.47
2019-01-24T21:44:41.273Z,90.63
2019-01-24T21:47:12.701Z,99.20
2019-01-24T21:49:43.930Z,90.80
2019-01-24T21:52:15.252Z,88.70
2019-01-24T21:54:46.644Z,86.30
2019-01-24T21:57:18.174Z,86.53
2019-01-24T21:59:51.810Z,88.70
2019-01-24T22:02:24.590Z,88.20
2019-01-24T22:04:57.564Z,85.60
2019-01-24T22:07:28.872Z,81.97
2019-01-24T22:10:00.605Z,90.83
2019-01-24T22:12:32.615Z,90.03
2019-01-24T22:15:05.139Z,87.40
2019-01-24T22:17:36.591Z,87.43
2019-01-24T22:20:10.441Z,95.93
2019-01-24T22:22:43.199Z,92.47
2019-01-24T22:25:19.582Z,88.87
2019-01-24T22:27:52.654Z,88.90
2019-01-24T22:30:31.720Z,92.50
2019-01-24T22:33:10.258Z,93.33
2019-01-24T22:35:41.598Z,90.77
2019-01-24T22:38:17.710Z,85.70
2019-01-24T22:40:48.890Z,80.83
2019-01-24T22:43:20.974Z,84.27
2019-01-24T22:45:52.254Z,86.13
2019-01-24T22:48:23.717Z,85.80
2019-01-24T22:50:55.037Z,80.40
2019-01-24T22:53:27.425Z,82.10
2019-01-24T22:55:58.799Z,89.63
2019-01-24T22:58:30.376Z,80.80
2019-01-24T23:01:15.007Z,80.83
2019-01-24T23:03:50.352Z,80.03
2019-01-24T23:06:21.790Z,81.73
2019-01-24T23:08:53.097Z,87.97
2019-01-24T23:11:24.696Z,89.93
2019-01-24T23:13:56.004Z,94.37
2019-01-24T23:16:27.313Z,104.43
2019-01-24T23:18:58.765Z,91.77
2019-01-24T23:21:30.325Z,137.10
2019-01-24T23:24:01.733Z,114.50
2019-01-24T23:26:34.436Z,97.70
2019-01-24T23:29:06.191Z,98.73
2019-01-24T23:31:37.629Z,104.50
2019-01-24T23:34:08.867Z,147.87
2019-01-24T23:36:40.841Z,140.47
2019-01-24T23:39:14.869Z,194.30
2019-01-24T23:41:46.229Z,180.20
2019-01-24T23:44:17.575Z,164.23
2019-01-24T23:46:49.078Z,194.57
2019-01-24T23:49:21.269Z,203.13
2019-01-24T23:51:53.619Z,180.17
2019-01-24T23:54:25.121Z,168.80
2019-01-24T23:56:58.348Z,159.17
2019-01-24T23:59:30.043Z,158.23
